• Join FlightAware (Why Join?)
  • Login
  • US Flag 
09:37AM EDT


 

Airport Tracker/Info


-or-


 

Live Flight TrackerFlight Track Log ✈ AAL297 ✈ 30-Apr-2013 ✈ KDFW - KLAX

Flight Track Log - Related Links

Times and Time Zones

All times are in EDT time to prevent confusion due to time zone crossing. See the AAL297 flight status page for this flight to view local times or setup timezone preferences in your user account.

Time Position Orientation Groundspeed Altitude Reporting Facility
EDT Latitude Longitude Course Direction KTS MPH feet Rate Location/Type
02:33PM 32.8833 -97.0500 292° West 157 181 1,400  Level Dallas / Fort Worth TRACON
02:34PM 32.8500 -97.0500 180° South 201 231 2,500 2,160 Climbing Dallas / Fort Worth TRACON
02:35PM 32.7833 -97.0667 192° South 253 291 5,100 2,700 Climbing Dallas / Fort Worth TRACON
02:36PM 32.6833 -97.2381 270° West  Level FlightAware Approximate
02:36PM 32.7833 -97.1500 270° West 276 318 8,000  Level Dallas / Fort Worth TRACON
02:37PM 32.7290 -97.3628 293° West  Level FlightAware Approximate
02:37PM 32.7978 -97.2503 280° West 408 470 10,500  Level Fort Worth Center
02:38PM 32.7742 -97.4893 292° West  Level FlightAware Approximate
02:38PM 32.8125 -97.3614 279° West 360 414 12,100  Level Fort Worth Center
02:39PM 32.8169 -97.6170 292° West  Level FlightAware Approximate
02:39PM 32.8292 -97.4828 279° West 369 425 14,000  Level Fort Worth Center
02:40PM 32.8478 -97.6136 280° West 391 450 17,300 2,880 Climbing Fort Worth Center
02:41PM 32.8642 -97.7447 278° West 396 456 19,800 1,800 Climbing Fort Worth Center
02:42PM 32.8658 -97.8686 271° West 410 472 21,000 1,620 Climbing Fort Worth Center
02:43PM 32.8967 -98.0244 283° West 437 503 23,100 1,860 Climbing Fort Worth Center
02:44PM 32.9231 -98.1508 284° West 443 510 24,800 1,620 Climbing Fort Worth Center
02:46PM 32.9897 -98.4586 285° West 466 536 28,000 1,740 Climbing Fort Worth Center
02:47PM 33.0258 -98.6078 286° West 466 536 30,100 1,920 Climbing Fort Worth Center
02:48PM 33.0578 -98.7544 285° West 461 531 31,900 1,680 Climbing Fort Worth Center
02:49PM 33.0917 -98.9011 285° West 461 531 33,500 1,500 Climbing Fort Worth Center
02:50PM 33.1233 -99.0456 285° West 455 524 35,000 1,320 Climbing Fort Worth Center
02:51PM 33.1547 -99.1900 285° West 455 524 36,200 960 Climbing Fort Worth Center
02:52PM 33.1861 -99.3347 285° West 455 524 37,000 780 Climbing Fort Worth Center
02:53PM 33.2169 -99.4819 284° West 455 524 37,800 480 Climbing Fort Worth Center
02:54PM 33.2500 -99.6267 285° West 455 524 38,000 60 Climbing Fort Worth Center
02:55PM 33.2806 -99.7789 284° West 455 524 38,000  Level Fort Worth Center
02:56PM 33.3111 -99.9239 284° West 455 524 38,000  Level Fort Worth Center
02:57PM 33.3436 -100.0742 285° West 455 524 38,000  Level Fort Worth Center
02:58PM 33.3736 -100.2267 283° West 455 524 38,000  Level Fort Worth Center
02:59PM 33.4036 -100.3744 284° West 455 524 38,000  Level Fort Worth Center
03:00PM 33.4356 -100.5225 285° West 455 524 38,000  Level Fort Worth Center
03:01PM 33.4653 -100.6703 284° West 455 524 38,000  Level Fort Worth Center
03:02PM 33.4944 -100.8208 283° West 455 524 38,000  Level Fort Worth Center
03:03PM 33.5244 -100.9492 286° West 455 524 38,000  Level Fort Worth Center
03:04PM 33.5550 -101.1172 282° West 455 524 38,000  Level Fort Worth Center
03:05PM 33.5822 -101.2506 284° West 455 524 38,000  Level Fort Worth Center
03:06PM 33.6147 -101.4142 283° West 455 524 38,000  Level Fort Worth Center
03:07PM 33.6397 -101.5475 283° West 455 524 38,000  Level Fort Worth Center
03:08PM 33.6700 -101.7011 283° West 463 533 38,000  Level Fort Worth Center
03:09PM 33.7003 -101.8525 284° West 469 540 38,000  Level Fort Worth Center
03:10PM 33.7294 -102.0236 282° West 475 547 38,000  Level Fort Worth Center
03:11PM 33.7594 -102.1728 284° West 468 539 38,000  Level Fort Worth Center
03:13PM 33.8014 -102.3961 283° West 466 536 38,000  Level Albuquerque Center
03:14PM 33.8303 -102.5481 283° West 468 539 38,000  Level Albuquerque Center
03:15PM 33.8583 -102.6994 283° West 468 539 38,000  Level Albuquerque Center
03:16PM 33.8864 -102.8511 283° West 468 539 38,000  Level Albuquerque Center
03:17PM 33.9136 -103.0014 282° West 464 534 38,000  Level Albuquerque Center
03:18PM 33.9475 -103.1811 283° West 461 531 38,000  Level Albuquerque Center
03:19PM 33.9739 -103.3325 282° West 462 532 38,000  Level Albuquerque Center
03:20PM 34.0000 -103.4872 282° West 468 539 38,000  Level Albuquerque Center
03:21PM 34.0269 -103.6392 282° West 468 539 38,000  Level Albuquerque Center
03:22PM 34.0564 -103.8097 282° West 465 535 38,000  Level Albuquerque Center
03:23PM 34.0825 -103.9636 282° West 463 533 38,000  Level Albuquerque Center
03:24PM 34.1094 -104.1161 282° West 461 531 38,000  Level Albuquerque Center
03:25PM 34.1347 -104.2683 281° West 460 529 38,000  Level Albuquerque Center
03:26PM 34.1608 -104.4200 282° West 456 525 38,000  Level Albuquerque Center
03:27PM 34.1861 -104.5686 282° West 450 518 38,000  Level Albuquerque Center
03:28PM 34.2117 -104.7167 282° West 447 514 38,000  Level Albuquerque Center
03:29PM 34.2367 -104.8678 281° West 450 518 38,000  Level Albuquerque Center
03:30PM 34.2647 -105.0422 281° West 449 517 38,000  Level Albuquerque Center
03:31PM 34.2886 -105.1911 281° West 448 516 38,000  Level Albuquerque Center
03:32PM 34.3139 -105.3386 282° West 445 512 38,000  Level Albuquerque Center
03:33PM 34.3375 -105.4886 281° West 448 516 38,000  Level Albuquerque Center
03:34PM 34.3614 -105.6372 281° West 447 514 38,000  Level Albuquerque Center
03:35PM 34.3742 -105.7894 276° West 449 517 38,000  Level Albuquerque Center
03:36PM 34.3750 -105.9419 270° West 450 518 38,000  Level Albuquerque Center
03:37PM 34.3794 -106.0950 272° West 450 518 38,000  Level Albuquerque Center
03:38PM 34.3825 -106.2444 271° West 451 519 38,000  Level Albuquerque Center
03:39PM 34.3858 -106.3967 272° West 452 520 38,000  Level Albuquerque Center
03:40PM 34.3867 -106.5497 270° West 453 521 38,000  Level Albuquerque Center
03:41PM 34.3886 -106.7003 271° West 449 517 38,000  Level Albuquerque Center
03:42PM 34.3897 -106.8850 270° West 454 522 38,000  Level Albuquerque Center
03:43PM 34.3892 -107.0414 270° West 461 531 38,000  Level Albuquerque Center
03:44PM 34.3900 -107.1944 270° West 456 525 38,000  Level Albuquerque Center
03:45PM 34.3906 -107.3472 270° West 453 521 38,000  Level Albuquerque Center
03:46PM 34.3908 -107.4989 270° West 451 519 38,000  Level Albuquerque Center
03:48PM 34.3911 -107.6522 270° West 453 521 38,000  Level Albuquerque Center
03:49PM 34.3914 -107.8039 270° West 451 519 38,000  Level Albuquerque Center
03:50PM 34.3908 -107.9564 270° West 452 520 38,000  Level Albuquerque Center
03:51PM 34.3903 -108.1083 270° West 451 519 38,000  Level Albuquerque Center
03:52PM 34.3892 -108.2886 270° West 447 514 38,000  Level Albuquerque Center
03:53PM 34.3894 -108.4397 270° West 448 516 38,000  Level Albuquerque Center
03:54PM 34.3872 -108.5892 269° West 446 513 38,000  Level Albuquerque Center
03:55PM 34.3861 -108.7317 269° West 442 509 38,000  Level Albuquerque Center
03:56PM 34.3847 -108.8961 269° West 440 506 38,000  Level Albuquerque Center
03:57PM 34.3828 -109.0364 269° West 437 503 38,000  Level Albuquerque Center
03:58PM 34.3806 -109.1981 269° West 433 498 38,000  Level Albuquerque Center
03:59PM 34.3789 -109.3361 269° West 430 495 38,000  Level Albuquerque Center
04:00PM 34.3764 -109.5000 269° West 432 497 38,000  Level Albuquerque Center
04:01PM 34.3744 -109.6392 269° West 431 496 38,000  Level Albuquerque Center
04:02PM 34.3719 -109.7775 269° West 430 495 38,000  Level Albuquerque Center
04:03PM 34.3683 -109.9389 268° West 429 494 38,000  Level Albuquerque Center
04:04PM 34.3661 -110.0794 269° West 433 498 38,000  Level Albuquerque Center
04:05PM 34.3625 -110.2419 269° West 433 498 38,000  Level Albuquerque Center
04:06PM 34.3594 -110.3819 269° West 433 498 38,000  Level Albuquerque Center
04:07PM 34.3572 -110.5283 269° West 444 511 38,000  Level Albuquerque Center
04:08PM 34.3536 -110.6739 268° West 437 503 38,000  Level Albuquerque Center
04:09PM 34.3461 -110.8192 266° West 436 502 38,000  Level Albuquerque Center
04:10PM 34.3417 -110.9956 268° West 438 504 38,000  Level Albuquerque Center
04:11PM 34.3369 -111.1431 268° West 440 506 38,000  Level Albuquerque Center
04:12PM 34.3322 -111.2897 268° West 440 506 38,000  Level Albuquerque Center
04:13PM 34.3286 -111.4350 268° West 437 503 38,000  Level Albuquerque Center
04:14PM 34.3236 -111.5803 268° West 437 503 38,000  Level Albuquerque Center
04:15PM 34.3394 -111.7503 276° West 428 493 38,000  Level Albuquerque Center
04:16PM 34.3558 -111.8872 278° West 420 483 38,000  Level Albuquerque Center
04:17PM 34.3728 -112.0256 278° West 419 482 38,000  Level Albuquerque Center
04:18PM 34.3894 -112.1622 278° West 416 479 38,000  Level Albuquerque Center
04:19PM 34.4069 -112.3000 279° West 417 480 38,000  Level Albuquerque Center
04:20PM 34.4586 -112.4200 298° West 411 473 38,000  Level Albuquerque Center
04:21PM 34.5569 -112.5092 323° Northwest 411 473 38,000  Level Albuquerque Center
04:23PM 34.6414 -112.6014 318° Northwest 409 471 38,000  Level Albuquerque Center
04:24PM 34.6483 -112.7664 273° West 413 475 38,000  Level Albuquerque Center
04:25PM 34.6333 -112.9078 263° West 419 482 38,000  Level Albuquerque Center
04:26PM 34.6200 -113.0489 263° West 421 484 38,000  Level Albuquerque Center
04:27PM 34.6069 -113.1872 263° West 417 480 38,000  Level Albuquerque Center
04:28PM 34.5928 -113.3286 263° West 420 483 38,000  Level Albuquerque Center
04:29PM 34.5783 -113.4689 263° West 421 484 38,000  Level Albuquerque Center
04:30PM 34.5644 -113.6094 263° West 421 484 38,000  Level Albuquerque Center
04:31PM 34.5353 -113.7686 258° West 421 484 38,000  Level Albuquerque Center
04:32PM 34.5069 -113.9075 256° West 422 486 38,000  Level Albuquerque Center
04:33PM 34.4794 -114.0458 256° West 423 487 38,000  Level Albuquerque Center
04:34PM 34.4500 -114.1903 256° West 418 481 38,000 -60 Level Los Angeles Center
04:35PM 34.4211 -114.3275 256° West 422 486 37,900  Descending Los Angeles Center
04:36PM 34.3933 -114.4639 256° West 420 483 38,000  Climbing Los Angeles Center
04:37PM 34.3589 -114.6275 256° West 419 482 37,900  Descending Los Angeles Center
04:38PM 34.3306 -114.7644 256° West 420 483 38,000  Climbing Los Angeles Center
04:39PM 34.3008 -114.9000 255° West 420 483 38,000  Level Los Angeles Center
04:40PM 34.2717 -115.0369 256° West 419 482 38,000  Level Los Angeles Center
04:41PM 34.2428 -115.1736 256° West 422 486 38,000 -540 Level Los Angeles Center
04:42PM 34.2056 -115.3392 255° West 425 489 36,900 -1,020 Descending Los Angeles Center
04:43PM 34.1753 -115.4817 256° West 435 501 35,900 -1,020 Descending Los Angeles Center
04:44PM 34.1456 -115.6231 256° West 436 502 34,900 -960 Descending Los Angeles Center
04:45PM 34.1144 -115.7656 255° West 441 507 34,000 -960 Descending Los Angeles Center
04:46PM 34.0911 -115.9108 259° West 443 510 33,000 -1,020 Descending Los Angeles Center
04:47PM 34.0694 -116.0581 260° West 446 513 32,000 -1,200 Descending Los Angeles Center
04:48PM 34.0428 -116.2353 260° West 449 517 30,600 -1,620 Descending Los Angeles Center
04:49PM 34.0217 -116.3778 260° West 440 506 28,700 -2,160 Descending Los Angeles Center
04:50PM 34.0025 -116.5172 261° West 430 495 26,200 -2,280 Descending Los Angeles Center
04:52PM 33.9922 -116.6506 265° West 410 472 23,600 -2,280 Descending Los Angeles Center
04:53PM 33.9803 -116.8017 265° West 388 447 21,100 -2,340 Descending Los Angeles Center
04:53PM 33.9667 -116.9167 262° West 359 413 19,400 -1,860 Descending Southern California TRACON
04:54PM 33.9667 -117.0333 270° West 353 406 17,900 -1,200 Descending Southern California TRACON
04:55PM 33.9500 -117.1500 260° West 348 400 17,000 -1,080 Descending Southern California TRACON
04:56PM 33.9333 -117.2667 260° West 320 368 15,800 -1,200 Descending Southern California TRACON
04:58PM 33.9333 -117.3667 270° West 306 352 14,500 -1,320 Descending Southern California TRACON
04:58PM 33.9667 -117.4667 292° West 296 341 13,200 -1,440 Descending Southern California TRACON
05:00PM 34.0000 -117.5500 296° West 289 333 11,700 -1,440 Descending Southern California TRACON
05:01PM 34.0000 -117.6500 270° West 306 352 10,300 -1,320 Descending Southern California TRACON
05:01PM 34.0000 -117.7333 270° West 271 312 9,200 -960 Descending Southern California TRACON
05:03PM 34.0000 -117.8333 270° West 261 300 8,400 -840 Descending Southern California TRACON
05:04PM 33.9833 -117.9167 256° West 237 273 7,500 -1,020 Descending Southern California TRACON
05:05PM 33.9833 -117.9833 270° West 237 273 6,400 -1,020 Descending Southern California TRACON
05:06PM 33.9667 -118.0667 256° West 209 241 5,500 -900 Descending Southern California TRACON